createdAt,value
2016-12-28T00:00:28.115Z,0
2016-12-28T00:01:39.106Z,0
2016-12-28T00:02:50.098Z,0
2016-12-28T00:04:01.090Z,0
2016-12-28T00:05:12.127Z,0
2016-12-28T00:06:23.115Z,0
2016-12-28T00:07:34.100Z,0
2016-12-28T00:08:45.120Z,0
2016-12-28T00:09:56.308Z,0
2016-12-28T00:11:07.294Z,0
2016-12-28T00:12:18.272Z,0
2016-12-28T00:13:29.256Z,0
2016-12-28T00:14:40.480Z,0
2016-12-28T00:15:51.660Z,0
2016-12-28T00:17:02.645Z,0
2016-12-28T00:18:13.629Z,0
2016-12-28T00:19:24.616Z,0
2016-12-28T00:20:35.596Z,0
2016-12-28T00:21:46.771Z,0
2016-12-28T00:22:57.967Z,0
2016-12-28T00:24:08.953Z,0
2016-12-28T00:25:19.946Z,0
2016-12-28T00:26:30.926Z,0
2016-12-28T00:27:41.911Z,0
2016-12-28T00:28:52.898Z,0
2016-12-28T00:30:03.881Z,0
2016-12-28T00:31:15.067Z,0
2016-12-28T00:32:26.455Z,0
2016-12-28T00:33:37.440Z,0
2016-12-28T00:34:48.428Z,0
2016-12-28T00:35:59.400Z,0
2016-12-28T00:37:10.386Z,0
2016-12-28T00:38:21.582Z,0
2016-12-28T00:39:32.576Z,0
2016-12-28T00:40:43.558Z,0
2016-12-28T00:41:54.538Z,0
2016-12-28T00:43:05.726Z,0
2016-12-28T00:44:16.717Z,0
2016-12-28T00:45:27.702Z,0
2016-12-28T00:46:38.680Z,0
2016-12-28T00:47:49.670Z,0
2016-12-28T00:49:00.658Z,0
2016-12-28T00:50:11.650Z,0
2016-12-28T00:51:22.635Z,0
2016-12-28T00:52:33.821Z,0
2016-12-28T00:53:44.805Z,0
2016-12-28T00:54:55.790Z,0
2016-12-28T00:56:06.778Z,0
2016-12-28T00:57:17.768Z,0
2016-12-28T00:58:28.744Z,0
2016-12-28T00:59:40.129Z,0
2016-12-28T01:00:51.114Z,0
2016-12-28T01:02:02.091Z,0
2016-12-28T01:03:13.069Z,0
2016-12-28T01:04:24.055Z,0
2016-12-28T01:05:35.243Z,0
2016-12-28T01:06:46.228Z,0
2016-12-28T01:07:57.220Z,0
2016-12-28T01:09:08.207Z,0
2016-12-28T01:10:19.199Z,0
2016-12-28T01:11:30.178Z,0
2016-12-28T01:12:41.166Z,0
2016-12-28T01:13:52.149Z,0
2016-12-28T01:15:03.334Z,0
2016-12-28T01:16:14.520Z,0
2016-12-28T01:17:25.493Z,0
2016-12-28T01:18:36.482Z,0
2016-12-28T01:19:47.464Z,0
2016-12-28T01:20:58.447Z,0
2016-12-28T01:22:09.433Z,0
2016-12-28T01:23:20.431Z,0
2016-12-28T01:24:31.421Z,0
2016-12-28T01:25:42.617Z,0
2016-12-28T01:26:53.602Z,0
2016-12-28T01:28:04.600Z,0
2016-12-28T01:29:15.589Z,0
2016-12-28T01:30:26.619Z,0
2016-12-28T01:31:37.594Z,0
2016-12-28T01:32:48.606Z,0
2016-12-28T01:33:59.598Z,0
2016-12-28T01:35:10.583Z,0
2016-12-28T01:36:21.973Z,0
2016-12-28T01:37:32.987Z,0
2016-12-28T01:38:43.967Z,0
2016-12-28T01:39:55.156Z,0
2016-12-28T01:41:06.144Z,0
2016-12-28T01:42:17.135Z,0
2016-12-28T01:43:28.116Z,0
2016-12-28T01:44:39.299Z,0
2016-12-28T01:45:50.288Z,0
2016-12-28T01:47:01.669Z,0
2016-12-28T01:48:12.664Z,0
2016-12-28T01:49:23.650Z,0
2016-12-28T01:50:34.638Z,0
2016-12-28T01:51:45.621Z,0
2016-12-28T01:52:56.602Z,0
2016-12-28T01:54:08.191Z,0
2016-12-28T01:55:19.576Z,0
2016-12-28T01:56:30.560Z,0
2016-12-28T01:57:41.535Z,0
2016-12-28T01:58:52.513Z,0
2016-12-28T02:00:03.697Z,0
2016-12-28T02:01:14.684Z,0
2016-12-28T02:02:25.871Z,0
2016-12-28T02:03:36.861Z,0
2016-12-28T02:04:47.841Z,0
2016-12-28T02:05:59.219Z,0
2016-12-28T02:07:10.203Z,0
2016-12-28T02:08:21.194Z,0
2016-12-28T02:09:32.164Z,0
2016-12-28T02:10:43.749Z,0
2016-12-28T02:11:54.727Z,0
2016-12-28T02:13:05.711Z,0
2016-12-28T02:14:16.703Z,0
2016-12-28T02:15:27.682Z,0
2016-12-28T02:16:38.870Z,0
2016-12-28T02:17:50.054Z,0
2016-12-28T02:19:01.240Z,0
2016-12-28T02:20:12.228Z,0
2016-12-28T02:21:23.405Z,0
2016-12-28T02:22:34.388Z,0
2016-12-28T02:23:45.578Z,0
2016-12-28T02:24:56.566Z,0
2016-12-28T02:26:07.551Z,0
2016-12-28T02:27:18.534Z,0
2016-12-28T02:28:29.512Z,0
2016-12-28T02:29:40.499Z,0
2016-12-28T02:30:51.509Z,0
2016-12-28T02:32:02.491Z,0
2016-12-28T02:33:13.481Z,0
2016-12-28T02:34:24.464Z,0
2016-12-28T02:35:35.494Z,0
2016-12-28T02:36:46.501Z,0
2016-12-28T02:37:57.495Z,0
2016-12-28T02:39:08.476Z,0
2016-12-28T02:40:19.658Z,0
2016-12-28T02:41:30.696Z,0
2016-12-28T02:42:41.679Z,0
2016-12-28T02:43:52.671Z,0
2016-12-28T02:45:03.659Z,0
2016-12-28T02:46:14.638Z,0
2016-12-28T02:47:25.869Z,0
2016-12-28T02:48:36.857Z,0
2016-12-28T02:49:47.837Z,0
2016-12-28T02:50:58.824Z,0
2016-12-28T02:52:09.806Z,0
2016-12-28T02:53:20.792Z,0
2016-12-28T02:54:31.777Z,0
2016-12-28T02:55:42.759Z,0
2016-12-28T02:56:53.746Z,0
2016-12-28T02:58:04.983Z,0
2016-12-28T02:59:15.967Z,0
2016-12-28T03:00:27.146Z,0
2016-12-28T03:01:38.123Z,0
2016-12-28T03:02:49.131Z,0
2016-12-28T03:04:00.162Z,0
2016-12-28T03:05:11.157Z,0
2016-12-28T03:06:22.345Z,0
2016-12-28T03:07:33.338Z,0
2016-12-28T03:08:44.328Z,0
2016-12-28T03:09:55.355Z,0
2016-12-28T03:11:06.339Z,0
2016-12-28T03:12:17.324Z,0
2016-12-28T03:13:28.506Z,0
2016-12-28T03:15:11.105Z,0
2016-12-28T03:16:22.095Z,0
2016-12-28T03:17:33.081Z,0
2016-12-28T03:18:44.069Z,0
2016-12-28T03:19:55.051Z,0
2016-12-28T03:21:06.299Z,0
2016-12-28T03:22:17.487Z,0
2016-12-28T03:23:28.468Z,0
2016-12-28T03:24:39.655Z,0
2016-12-28T03:25:50.639Z,0
2016-12-28T03:27:01.658Z,0
2016-12-28T03:28:12.633Z,0
2016-12-28T03:29:23.622Z,0
2016-12-28T03:30:34.611Z,0
2016-12-28T03:31:45.594Z,0
2016-12-28T03:32:56.570Z,0
2016-12-28T03:34:07.554Z,0
2016-12-28T03:35:18.736Z,0
2016-12-28T03:36:29.726Z,0
2016-12-28T03:37:40.709Z,0
2016-12-28T03:38:51.896Z,0
2016-12-28T03:40:02.877Z,0
2016-12-28T03:41:13.864Z,0
2016-12-28T03:42:24.847Z,0
2016-12-28T03:43:35.825Z,0
2016-12-28T03:44:46.809Z,0
2016-12-28T03:45:57.796Z,0
2016-12-28T03:47:08.782Z,0
2016-12-28T03:48:19.766Z,0
2016-12-28T03:49:30.949Z,0
2016-12-28T03:50:41.944Z,0
2016-12-28T03:51:52.925Z,0
2016-12-28T03:53:03.905Z,0
2016-12-28T03:54:14.886Z,0
2016-12-28T03:55:25.876Z,0
2016-12-28T03:56:36.872Z,0
2016-12-28T03:57:47.858Z,0
2016-12-28T03:58:59.052Z,0
2016-12-28T04:00:10.114Z,0
2016-12-28T04:01:21.105Z,0
2016-12-28T04:02:32.083Z,0
2016-12-28T04:03:43.059Z,0
2016-12-28T04:04:54.045Z,0
2016-12-28T04:06:05.038Z,0
2016-12-28T04:07:16.026Z,0
2016-12-28T04:08:27.008Z,0
2016-12-28T04:09:37.993Z,0
2016-12-28T04:10:48.984Z,0
2016-12-28T04:12:00.167Z,0
2016-12-28T04:13:11.147Z,0
2016-12-28T04:14:22.134Z,0
2016-12-28T04:15:33.314Z,0
2016-12-28T04:16:44.301Z,0
2016-12-28T04:17:55.280Z,0
2016-12-28T04:19:06.268Z,0
2016-12-28T04:20:17.276Z,0
2016-12-28T04:21:28.255Z,0
2016-12-28T04:22:39.442Z,0
2016-12-28T04:23:50.422Z,0
2016-12-28T04:25:01.397Z,0
2016-12-28T04:26:12.388Z,0
2016-12-28T04:27:23.372Z,0
2016-12-28T04:28:34.362Z,0
2016-12-28T04:29:45.350Z,0
2016-12-28T04:30:56.339Z,0
2016-12-28T04:32:07.526Z,0
2016-12-28T04:33:18.511Z,0
2016-12-28T04:34:29.501Z,0
2016-12-28T04:35:40.479Z,0
2016-12-28T04:36:51.463Z,0
2016-12-28T04:38:02.447Z,0
2016-12-28T04:39:13.435Z,0
2016-12-28T04:40:24.420Z,0
2016-12-28T04:41:35.412Z,0
2016-12-28T04:42:46.601Z,0
2016-12-28T04:43:57.587Z,0
2016-12-28T04:45:08.570Z,0
2016-12-28T04:46:19.963Z,0
2016-12-28T04:47:30.953Z,0
2016-12-28T04:48:41.941Z,0
2016-12-28T04:49:53.129Z,0
2016-12-28T04:51:04.325Z,0
2016-12-28T04:52:15.312Z,0
2016-12-28T04:53:26.291Z,0
2016-12-28T04:54:37.278Z,0
2016-12-28T04:55:48.266Z,0
2016-12-28T04:56:59.246Z,0
2016-12-28T04:58:10.233Z,0
2016-12-28T04:59:21.424Z,0
2016-12-28T05:00:32.656Z,0
2016-12-28T05:01:43.644Z,0
2016-12-28T05:02:54.625Z,0
2016-12-28T05:04:05.801Z,0
2016-12-28T05:05:16.783Z,0
2016-12-28T05:06:27.779Z,0
2016-12-28T05:07:38.766Z,0
2016-12-28T05:08:49.980Z,0
2016-12-28T05:10:00.963Z,0
2016-12-28T05:11:11.943Z,0
2016-12-28T05:12:22.930Z,0
2016-12-28T05:13:33.924Z,0
2016-12-28T05:14:45.106Z,0
2016-12-28T05:15:56.091Z,0
2016-12-28T05:17:07.271Z,0
2016-12-28T05:18:18.254Z,0
2016-12-28T05:19:29.238Z,0
2016-12-28T05:20:40.226Z,0
2016-12-28T05:21:51.214Z,0
2016-12-28T05:23:02.194Z,0
2016-12-28T05:24:13.181Z,0
2016-12-28T05:25:24.163Z,0
2016-12-28T05:26:35.181Z,0
2016-12-28T05:27:46.364Z,0
2016-12-28T05:28:57.546Z,0
2016-12-28T05:30:08.536Z,0
2016-12-28T05:31:19.523Z,0
2016-12-28T05:32:30.712Z,0
2016-12-28T05:33:41.890Z,0
2016-12-28T05:34:52.867Z,0
2016-12-28T05:36:03.847Z,0
2016-12-28T05:37:14.832Z,0
2016-12-28T05:38:26.021Z,0
2016-12-28T05:39:36.996Z,0
2016-12-28T05:40:47.989Z,0
2016-12-28T05:41:58.967Z,0
2016-12-28T05:43:09.959Z,0
2016-12-28T05:44:20.937Z,0
2016-12-28T05:45:32.128Z,0
2016-12-28T05:46:43.111Z,0
2016-12-28T05:47:54.088Z,0
2016-12-28T05:49:05.273Z,0
2016-12-28T05:50:16.254Z,0
2016-12-28T05:51:27.239Z,0
2016-12-28T05:52:38.230Z,0
2016-12-28T05:53:49.209Z,0
2016-12-28T05:55:00.189Z,0
2016-12-28T05:56:11.184Z,0
2016-12-28T05:57:22.168Z,0
2016-12-28T05:58:33.182Z,0
2016-12-28T05:59:44.165Z,0
2016-12-28T06:00:55.151Z,0
2016-12-28T06:02:06.132Z,0
2016-12-28T06:03:17.123Z,0
2016-12-28T06:04:28.101Z,0
2016-12-28T06:05:39.086Z,0
2016-12-28T06:06:50.280Z,0
2016-12-28T06:08:01.260Z,0
2016-12-28T06:09:12.249Z,0
2016-12-28T06:10:23.434Z,0
2016-12-28T06:11:34.823Z,0
2016-12-28T06:12:45.809Z,0
2016-12-28T06:13:57.191Z,0
2016-12-28T06:15:08.374Z,0
2016-12-28T06:16:19.364Z,0
2016-12-28T06:17:30.349Z,0
2016-12-28T06:18:41.532Z,0
2016-12-28T06:19:52.514Z,0
2016-12-28T06:21:03.553Z,0
2016-12-28T06:22:14.536Z,0
2016-12-28T06:23:25.541Z,0
2016-12-28T06:24:36.530Z,0
2016-12-28T06:25:47.508Z,0
2016-12-28T06:26:58.494Z,0
2016-12-28T06:28:09.480Z,0
2016-12-28T06:29:20.458Z,0
2016-12-28T06:30:31.442Z,0
2016-12-28T06:31:42.421Z,0
2016-12-28T06:32:53.409Z,0
2016-12-28T06:34:04.396Z,0
2016-12-28T06:35:15.383Z,0
2016-12-28T06:36:26.370Z,0
2016-12-28T06:37:37.562Z,0
2016-12-28T06:38:48.543Z,0
2016-12-28T06:39:59.530Z,0
2016-12-28T06:41:10.913Z,0
2016-12-28T06:42:21.897Z,0
2016-12-28T06:43:32.879Z,0
2016-12-28T06:44:43.862Z,0
2016-12-28T06:45:54.843Z,0
2016-12-28T06:47:05.828Z,0
2016-12-28T06:48:16.805Z,0
2016-12-28T06:49:27.984Z,0
2016-12-28T06:50:39.012Z,0
2016-12-28T06:51:49.990Z,0
2016-12-28T06:53:01.174Z,0
2016-12-28T06:54:12.150Z,0
2016-12-28T06:55:23.145Z,0
2016-12-28T06:56:34.136Z,0
2016-12-28T06:57:45.114Z,0
2016-12-28T06:58:56.101Z,0
2016-12-28T07:00:07.090Z,0
2016-12-28T07:01:18.081Z,0
2016-12-28T07:02:29.268Z,0
2016-12-28T07:03:40.448Z,0
2016-12-28T07:04:51.432Z,0
2016-12-28T07:06:02.417Z,0
2016-12-28T07:07:13.439Z,0
2016-12-28T07:08:24.428Z,0
2016-12-28T07:09:35.410Z,0
2016-12-28T07:10:46.404Z,0
2016-12-28T07:11:57.385Z,0
2016-12-28T07:13:08.362Z,0
2016-12-28T07:14:19.346Z,0
2016-12-28T07:15:30.325Z,0
2016-12-28T07:16:41.505Z,0
2016-12-28T07:17:52.486Z,0
2016-12-28T07:19:03.674Z,0
2016-12-28T07:20:14.855Z,0
2016-12-28T07:21:26.033Z,0
2016-12-28T07:22:37.009Z,0
2016-12-28T07:23:48.206Z,0
2016-12-28T07:24:59.187Z,0
2016-12-28T07:26:10.173Z,0
2016-12-28T07:27:21.360Z,0
2016-12-28T07:28:32.334Z,0
2016-12-28T07:29:43.319Z,0
2016-12-28T07:30:54.290Z,0
2016-12-28T07:32:05.274Z,0
2016-12-28T07:33:16.259Z,0
2016-12-28T07:34:27.242Z,0
2016-12-28T07:35:38.376Z,0
2016-12-28T07:36:49.355Z,5
2016-12-28T07:38:00.342Z,5
2016-12-28T07:39:11.321Z,5
2016-12-28T07:40:22.307Z,5
2016-12-28T07:41:33.347Z,5
2016-12-28T07:42:44.322Z,5
2016-12-28T07:43:55.299Z,5
2016-12-28T07:45:06.276Z,5
2016-12-28T07:46:17.259Z,5
2016-12-28T07:47:28.440Z,10
2016-12-28T07:48:39.624Z,10
2016-12-28T07:49:50.605Z,10
2016-12-28T07:51:01.622Z,10
2016-12-28T07:52:12.864Z,10
2016-12-28T07:53:24.253Z,10
2016-12-28T07:54:35.240Z,15
2016-12-28T07:55:46.226Z,15
2016-12-28T07:56:57.213Z,15
2016-12-28T07:58:08.449Z,15
2016-12-28T07:59:19.428Z,15
2016-12-28T08:00:30.421Z,20
2016-12-28T08:01:41.407Z,20
2016-12-28T08:02:52.390Z,20
2016-12-28T08:04:03.439Z,20
2016-12-28T08:05:14.425Z,20
2016-12-28T08:06:25.399Z,20
2016-12-28T08:07:36.386Z,20
2016-12-28T08:08:47.370Z,20
2016-12-28T08:09:58.366Z,20
2016-12-28T08:11:09.356Z,20
2016-12-28T08:12:20.337Z,20
2016-12-28T08:13:31.321Z,20
2016-12-28T08:14:42.299Z,20
2016-12-28T08:15:53.481Z,20
2016-12-28T08:17:04.467Z,20
2016-12-28T08:18:15.450Z,20
2016-12-28T08:19:26.451Z,20
2016-12-28T08:20:37.447Z,20
2016-12-28T08:21:48.435Z,20
2016-12-28T08:22:59.416Z,20
2016-12-28T08:24:10.413Z,25
2016-12-28T08:25:21.399Z,25
2016-12-28T08:26:32.387Z,25
2016-12-28T08:27:43.372Z,25
2016-12-28T08:28:54.558Z,30
2016-12-28T08:30:05.541Z,30
2016-12-28T08:31:16.522Z,30
2016-12-28T08:32:27.499Z,30
2016-12-28T08:33:38.486Z,30
2016-12-28T08:34:49.469Z,35
2016-12-28T08:36:00.457Z,35
2016-12-28T08:37:11.445Z,40
2016-12-28T08:38:22.431Z,40
2016-12-28T08:39:33.406Z,45
2016-12-28T08:40:44.387Z,45
2016-12-28T08:41:55.380Z,45
2016-12-28T08:43:06.365Z,45
2016-12-28T08:44:17.343Z,45
2016-12-28T08:45:28.380Z,45
2016-12-28T08:46:39.358Z,45
2016-12-28T08:47:50.778Z,45
2016-12-28T08:49:01.765Z,45
2016-12-28T08:50:12.790Z,45
2016-12-28T08:51:23.971Z,45
2016-12-28T08:52:34.955Z,50
2016-12-28T08:53:45.939Z,55
2016-12-28T08:54:56.935Z,60
2016-12-28T08:56:07.922Z,60
2016-12-28T08:57:18.904Z,60
2016-12-28T08:58:29.892Z,60
2016-12-28T08:59:40.865Z,55
2016-12-28T09:00:51.850Z,60
2016-12-28T09:02:02.829Z,65
2016-12-28T09:03:13.810Z,60
2016-12-28T09:04:24.992Z,55
2016-12-28T09:05:36.180Z,65
2016-12-28T09:06:47.390Z,60
2016-12-28T09:07:58.573Z,50
2016-12-28T09:09:09.559Z,55
2016-12-28T09:10:20.746Z,50
2016-12-28T09:11:31.936Z,50
2016-12-28T09:12:42.921Z,50
2016-12-28T09:13:53.900Z,50
2016-12-28T09:15:05.142Z,45
2016-12-28T09:16:16.165Z,50
2016-12-28T09:17:27.151Z,45
2016-12-28T09:18:38.138Z,45
2016-12-28T09:19:49.120Z,45
2016-12-28T09:21:00.103Z,50
2016-12-28T09:22:11.097Z,50
2016-12-28T09:23:22.082Z,50
2016-12-28T09:24:33.061Z,50
2016-12-28T09:25:44.044Z,50
2016-12-28T09:26:55.028Z,55
2016-12-28T09:28:06.016Z,60
2016-12-28T09:29:17.009Z,65
2016-12-28T09:30:28.025Z,65
2016-12-28T09:31:39.010Z,75
2016-12-28T09:32:49.989Z,70
2016-12-28T09:34:00.975Z,75
2016-12-28T09:35:12.158Z,75
2016-12-28T09:36:23.342Z,70
2016-12-28T09:37:34.320Z,75
2016-12-28T09:38:45.330Z,70
2016-12-28T09:39:56.523Z,65
2016-12-28T09:41:07.507Z,70
2016-12-28T09:42:18.491Z,75
2016-12-28T09:43:29.483Z,85
2016-12-28T09:44:40.464Z,95
2016-12-28T09:45:51.457Z,105
2016-12-28T09:47:02.437Z,110
2016-12-28T09:48:13.425Z,105
2016-12-28T09:49:24.421Z,100
2016-12-28T09:50:35.407Z,100
2016-12-28T09:51:46.408Z,115
2016-12-28T09:52:57.388Z,120
2016-12-28T09:54:08.370Z,125
2016-12-28T09:55:19.354Z,130
2016-12-28T09:56:30.347Z,140
2016-12-28T09:57:41.335Z,145
2016-12-28T09:58:52.312Z,155
2016-12-28T10:00:03.324Z,155
2016-12-28T10:01:14.307Z,145
2016-12-28T10:02:25.515Z,150
2016-12-28T10:03:36.704Z,125
2016-12-28T10:04:47.682Z,125
2016-12-28T10:05:58.670Z,125
2016-12-28T10:07:09.878Z,115
2016-12-28T10:08:20.867Z,115
2016-12-28T10:09:32.045Z,105
2016-12-28T10:10:43.080Z,120
2016-12-28T10:11:54.067Z,130
2016-12-28T10:13:05.053Z,125
2016-12-28T10:14:16.265Z,105
2016-12-28T10:15:27.258Z,100
2016-12-28T10:16:38.274Z,100
2016-12-28T10:17:49.465Z,105
2016-12-28T10:19:00.446Z,100
2016-12-28T10:20:11.841Z,105
2016-12-28T10:21:22.830Z,105
2016-12-28T10:22:33.818Z,105
2016-12-28T10:23:45.013Z,110
2016-12-28T10:24:56.215Z,120
2016-12-28T10:26:07.200Z,130
2016-12-28T10:27:18.187Z,130
2016-12-28T10:28:29.171Z,120
2016-12-28T10:29:40.157Z,120
2016-12-28T10:30:51.399Z,130
2016-12-28T10:32:02.377Z,130
2016-12-28T10:33:13.362Z,125
2016-12-28T10:34:24.550Z,130
2016-12-28T10:35:35.539Z,130
2016-12-28T10:36:46.577Z,125
2016-12-28T10:37:57.567Z,125
2016-12-28T10:39:08.559Z,115
2016-12-28T10:40:19.543Z,125
2016-12-28T10:41:30.537Z,130
2016-12-28T10:42:41.572Z,135
2016-12-28T10:43:52.576Z,135
2016-12-28T10:45:03.563Z,150
2016-12-28T10:46:14.773Z,135
2016-12-28T10:47:25.765Z,130
2016-12-28T10:48:36.744Z,135
2016-12-28T10:49:47.735Z,150
2016-12-28T10:50:58.719Z,160
2016-12-28T10:52:09.704Z,185
2016-12-28T10:53:20.738Z,195
2016-12-28T10:54:31.726Z,190
2016-12-28T10:55:42.711Z,195
2016-12-28T10:56:53.700Z,195
2016-12-28T10:58:04.679Z,175
2016-12-28T10:59:15.718Z,180
2016-12-28T11:00:26.728Z,200
2016-12-28T11:01:37.709Z,210
2016-12-28T11:02:48.898Z,205
2016-12-28T11:03:59.872Z,185
2016-12-28T11:05:10.911Z,180
2016-12-28T11:06:21.899Z,155
2016-12-28T11:07:32.884Z,140
2016-12-28T11:08:43.866Z,135
2016-12-28T11:09:55.058Z,135
2016-12-28T11:11:06.079Z,130
2016-12-28T11:12:17.287Z,135
2016-12-28T11:13:28.281Z,130
2016-12-28T11:14:39.265Z,125
2016-12-28T11:15:50.270Z,125
2016-12-28T11:17:01.253Z,120
2016-12-28T11:18:12.438Z,125
2016-12-28T11:19:23.632Z,135
2016-12-28T11:20:34.659Z,135
2016-12-28T11:21:45.646Z,135
2016-12-28T11:22:56.628Z,140
2016-12-28T11:24:07.617Z,140
2016-12-28T11:25:18.599Z,135
2016-12-28T11:26:29.579Z,130
2016-12-28T11:27:40.590Z,125
2016-12-28T11:28:51.978Z,120
2016-12-28T11:30:03.157Z,120
2016-12-28T11:31:14.147Z,105
2016-12-28T11:32:25.530Z,100
2016-12-28T11:33:36.525Z,95
2016-12-28T11:34:47.507Z,95
2016-12-28T11:35:58.494Z,85
2016-12-28T11:37:09.477Z,85
2016-12-28T11:38:20.464Z,85
2016-12-28T11:39:31.449Z,85
2016-12-28T11:40:42.431Z,85
2016-12-28T11:41:53.419Z,85
2016-12-28T11:43:04.410Z,80
2016-12-28T11:44:15.393Z,80
2016-12-28T11:45:26.373Z,75
2016-12-28T11:46:37.394Z,70
2016-12-28T11:47:48.591Z,70
2016-12-28T11:48:59.575Z,70
2016-12-28T11:50:10.618Z,70
2016-12-28T11:51:21.807Z,75
2016-12-28T11:52:32.845Z,80
2016-12-28T11:53:44.163Z,85
2016-12-28T11:54:55.560Z,90
2016-12-28T11:56:06.960Z,90
2016-12-28T11:57:18.361Z,95
2016-12-28T11:58:29.764Z,95
2016-12-28T11:59:41.170Z,95
2016-12-28T12:00:52.579Z,95
2016-12-28T12:02:04.023Z,90
2016-12-28T12:03:15.453Z,90
2016-12-28T12:04:26.855Z,85
2016-12-28T12:05:38.255Z,85
2016-12-28T12:06:49.658Z,85
2016-12-28T12:08:01.067Z,85
2016-12-28T12:09:12.472Z,85
2016-12-28T12:10:23.873Z,90
2016-12-28T12:11:35.268Z,85
2016-12-28T12:12:46.674Z,85
2016-12-28T12:13:58.101Z,85
2016-12-28T12:15:09.506Z,85
2016-12-28T12:16:20.907Z,90
2016-12-28T12:17:32.306Z,85
2016-12-28T12:18:43.702Z,85
2016-12-28T12:19:55.097Z,85
2016-12-28T12:21:06.498Z,85
2016-12-28T12:22:17.899Z,85
2016-12-28T12:23:29.302Z,85
2016-12-28T12:24:40.901Z,85
2016-12-28T12:25:52.297Z,90
2016-12-28T12:27:03.696Z,90
2016-12-28T12:28:15.094Z,95
2016-12-28T12:29:26.502Z,95
2016-12-28T12:30:37.909Z,100
2016-12-28T12:31:49.308Z,105
2016-12-28T12:33:00.714Z,100
2016-12-28T12:34:12.131Z,105
2016-12-28T12:35:23.528Z,100
2016-12-28T12:36:34.934Z,100
2016-12-28T12:37:46.545Z,100
2016-12-28T12:38:57.947Z,95
2016-12-28T12:40:09.353Z,95
2016-12-28T12:41:20.770Z,100
2016-12-28T12:42:32.173Z,100
2016-12-28T12:43:43.571Z,95
2016-12-28T12:44:55.602Z,95
2016-12-28T12:46:07.004Z,95
2016-12-28T12:47:18.409Z,100
2016-12-28T12:48:29.818Z,100
2016-12-28T12:49:41.418Z,100
2016-12-28T12:50:52.820Z,100
2016-12-28T12:52:04.224Z,95
2016-12-28T12:53:15.641Z,100
2016-12-28T12:54:27.070Z,100
2016-12-28T12:55:38.472Z,100
2016-12-28T12:56:49.881Z,95
2016-12-28T12:58:01.283Z,90
2016-12-28T12:59:12.917Z,90
2016-12-28T13:00:24.316Z,90
2016-12-28T13:01:35.920Z,85
2016-12-28T13:02:47.516Z,85
2016-12-28T13:03:58.920Z,85
2016-12-28T13:05:10.373Z,85
2016-12-28T13:06:21.813Z,85
2016-12-28T13:07:33.226Z,85
2016-12-28T13:08:44.624Z,85
2016-12-28T13:09:56.027Z,85
2016-12-28T13:11:07.432Z,80
2016-12-28T13:12:18.832Z,80
2016-12-28T13:13:30.228Z,80
2016-12-28T13:14:41.839Z,80
2016-12-28T13:15:53.240Z,80
2016-12-28T13:17:04.638Z,80
2016-12-28T13:18:16.046Z,80
2016-12-28T13:19:27.645Z,80
2016-12-28T13:20:39.037Z,80
2016-12-28T13:21:50.637Z,80
2016-12-28T13:23:02.033Z,85
2016-12-28T13:24:13.423Z,75
2016-12-28T13:25:24.820Z,75
2016-12-28T13:26:36.229Z,75
2016-12-28T13:27:47.834Z,75
2016-12-28T13:28:59.440Z,75
2016-12-28T13:30:10.840Z,75
2016-12-28T13:31:22.257Z,75
2016-12-28T13:32:33.657Z,75
2016-12-28T13:33:45.059Z,75
2016-12-28T13:34:56.462Z,75
2016-12-28T13:36:07.863Z,70
2016-12-28T13:37:19.263Z,70
2016-12-28T13:38:30.669Z,65
2016-12-28T13:39:42.272Z,65
2016-12-28T13:40:53.672Z,65
2016-12-28T13:42:05.279Z,60
2016-12-28T13:43:16.683Z,60
2016-12-28T13:44:28.079Z,55
2016-12-28T13:45:39.501Z,55
2016-12-28T13:46:50.900Z,55
2016-12-28T13:48:02.304Z,55
2016-12-28T13:49:13.711Z,55
2016-12-28T13:50:25.109Z,55
2016-12-28T13:51:36.500Z,50
2016-12-28T13:52:47.909Z,50
2016-12-28T13:53:59.520Z,50
2016-12-28T13:55:10.920Z,50
2016-12-28T13:56:22.327Z,45
2016-12-28T13:57:33.718Z,45
2016-12-28T13:58:45.316Z,45
2016-12-28T13:59:56.913Z,45
2016-12-28T14:01:08.313Z,45
2016-12-28T14:02:19.710Z,45
2016-12-28T14:03:31.117Z,45
2016-12-28T14:04:42.516Z,45
2016-12-28T14:05:53.930Z,45
2016-12-28T14:07:05.327Z,45
2016-12-28T14:08:16.730Z,45
2016-12-28T14:09:28.117Z,45
2016-12-28T14:10:39.575Z,45
2016-12-28T14:11:50.986Z,45
2016-12-28T14:13:02.396Z,45
2016-12-28T14:14:13.795Z,45
2016-12-28T14:15:25.197Z,40
2016-12-28T14:16:36.599Z,40
2016-12-28T14:17:47.998Z,40
2016-12-28T14:18:59.395Z,40
2016-12-28T14:20:10.801Z,35
2016-12-28T14:21:22.233Z,35
2016-12-28T14:22:33.832Z,35
2016-12-28T14:23:45.258Z,35
2016-12-28T14:24:56.658Z,35
2016-12-28T14:26:08.262Z,30
2016-12-28T14:27:19.672Z,30
2016-12-28T14:28:31.070Z,30
2016-12-28T14:29:42.478Z,30
2016-12-28T14:30:53.872Z,30
2016-12-28T14:32:05.483Z,30
2016-12-28T14:33:17.109Z,30
2016-12-28T14:34:28.508Z,25
2016-12-28T14:35:40.109Z,25
2016-12-28T14:36:51.538Z,25
2016-12-28T14:38:02.953Z,25
2016-12-28T14:39:14.354Z,25
2016-12-28T14:40:25.754Z,25
2016-12-28T14:41:37.155Z,25
2016-12-28T14:42:48.576Z,20
2016-12-28T14:43:59.984Z,20
2016-12-28T14:45:11.589Z,20
2016-12-28T14:46:22.984Z,20
2016-12-28T14:47:34.626Z,15
2016-12-28T14:48:46.039Z,15
2016-12-28T14:49:57.449Z,15
2016-12-28T14:51:08.911Z,15
2016-12-28T14:52:20.541Z,15
2016-12-28T14:53:31.948Z,15
2016-12-28T14:54:43.349Z,15
2016-12-28T14:55:54.806Z,15
2016-12-28T14:57:06.215Z,10
2016-12-28T14:58:17.647Z,10
2016-12-28T14:59:29.051Z,10
2016-12-28T15:00:40.659Z,10
2016-12-28T15:01:52.119Z,10
2016-12-28T15:03:03.523Z,10
2016-12-28T15:04:14.925Z,10
2016-12-28T15:05:26.359Z,5
2016-12-28T15:06:37.760Z,5
2016-12-28T15:07:49.215Z,5
2016-12-28T15:09:00.614Z,5
2016-12-28T15:10:12.014Z,5
2016-12-28T15:11:23.416Z,5
2016-12-28T15:12:34.820Z,5
2016-12-28T15:13:46.263Z,5
2016-12-28T15:14:57.692Z,5
2016-12-28T15:16:09.090Z,5
2016-12-28T15:17:20.528Z,0
2016-12-28T15:18:31.925Z,0
2016-12-28T15:19:43.373Z,0
2016-12-28T15:20:54.981Z,0
2016-12-28T15:22:06.382Z,0
2016-12-28T15:23:17.783Z,0
2016-12-28T15:24:29.177Z,0
2016-12-28T15:25:40.781Z,0
2016-12-28T15:26:52.197Z,0
2016-12-28T15:28:03.595Z,0
2016-12-28T15:29:14.997Z,0
2016-12-28T15:30:26.399Z,0
2016-12-28T15:31:37.803Z,0
2016-12-28T15:32:49.198Z,0
2016-12-28T15:34:00.600Z,0
2016-12-28T15:35:12.006Z,0
2016-12-28T15:36:23.615Z,0
2016-12-28T15:37:35.045Z,0
2016-12-28T15:38:46.451Z,0
2016-12-28T15:39:57.846Z,0
2016-12-28T15:41:09.247Z,0
2016-12-28T15:42:20.650Z,0
2016-12-28T15:43:32.053Z,0
2016-12-28T15:44:43.449Z,0
2016-12-28T15:45:54.851Z,0
2016-12-28T15:47:06.259Z,0
2016-12-28T15:48:17.662Z,0
2016-12-28T15:49:29.067Z,0
2016-12-28T15:50:40.465Z,0
2016-12-28T15:51:51.887Z,0
2016-12-28T15:53:03.290Z,0
2016-12-28T15:54:14.693Z,0
2016-12-28T15:55:26.094Z,0
2016-12-28T15:56:37.489Z,0
2016-12-28T15:57:48.894Z,0
2016-12-28T15:59:00.305Z,0
2016-12-28T16:00:11.709Z,0
2016-12-28T16:01:23.107Z,0
2016-12-28T16:02:34.509Z,0
2016-12-28T16:03:45.917Z,0
2016-12-28T16:04:57.350Z,0
2016-12-28T16:06:08.763Z,0
2016-12-28T16:07:20.167Z,0
2016-12-28T16:08:31.558Z,0
2016-12-28T16:09:42.968Z,0
2016-12-28T16:10:54.373Z,0
2016-12-28T16:12:05.979Z,0
2016-12-28T16:13:17.380Z,0
2016-12-28T16:14:28.789Z,0
2016-12-28T16:15:40.191Z,0
2016-12-28T16:16:51.589Z,0
2016-12-28T16:18:02.992Z,0
2016-12-28T16:19:14.599Z,0
2016-12-28T16:20:26.000Z,0
2016-12-28T16:21:37.409Z,0
2016-12-28T16:22:48.847Z,0
2016-12-28T16:24:00.479Z,0
2016-12-28T16:25:12.085Z,0
2016-12-28T16:26:23.488Z,0
2016-12-28T16:27:34.895Z,0
2016-12-28T16:28:46.292Z,0
2016-12-28T16:29:57.693Z,0
2016-12-28T16:31:09.101Z,0
2016-12-28T16:32:20.500Z,0
2016-12-28T16:33:31.903Z,0
2016-12-28T16:34:43.307Z,0
2016-12-28T16:35:54.774Z,0
2016-12-28T16:37:06.412Z,0
2016-12-28T16:38:17.820Z,0
2016-12-28T16:39:29.217Z,0
2016-12-28T16:40:40.626Z,0
2016-12-28T16:41:52.182Z,0
2016-12-28T16:43:03.589Z,0
2016-12-28T16:44:15.006Z,0
2016-12-28T16:45:26.414Z,0
2016-12-28T16:46:37.812Z,0
2016-12-28T16:47:49.264Z,0
2016-12-28T16:49:00.665Z,0
2016-12-28T16:50:12.067Z,0
2016-12-28T16:51:23.482Z,0
2016-12-28T16:52:34.891Z,0
2016-12-28T16:53:46.561Z,0
2016-12-28T16:54:58.163Z,0
2016-12-28T16:56:09.560Z,0
2016-12-28T16:57:21.167Z,0
2016-12-28T16:58:32.573Z,0
2016-12-28T16:59:44.135Z,0
2016-12-28T17:00:55.537Z,0
2016-12-28T17:02:06.936Z,0
2016-12-28T17:03:18.333Z,0
2016-12-28T17:04:29.933Z,0
2016-12-28T17:05:41.336Z,0
2016-12-28T17:06:52.735Z,0
2016-12-28T17:08:04.140Z,0
2016-12-28T17:09:15.537Z,0
2016-12-28T17:10:26.983Z,0
2016-12-28T17:11:38.388Z,0